Gagetown, Canada
Current Conditions -  °F | °C
As of 5:00 AM on Thursday 23 Oct 2014 (Local Time) from CYCX Reporting Station
Light Rain Light Rain  
Wind Chill: 40°   Ceiling: 600
Heat Index: 46°   Visibility: 4mi
Dew Point: 46°   Wind: 15mph
Humidity: 100%   Direction: 40°NE
Pressure: 30.14"   Gusts: 24mph
Location:  45.77°N, 66.15°W
Report Text: CYCX 230800Z 04013G21KT 4SM -RA OVC006 08/08 A3014 RMK SF8DA-775FT SLP209
Loading
Personal Weather Stations






























Interactive Weather Map
Tropical Storm Tracking
New forecast layout! Learn more

10-Day Weather Forecast

Advertisements
Track Severe Weather on mobile